TimeEST,TemperatureF,Dew PointF,Humidity,Sea Level PressureIn,VisibilityMPH,Wind Direction,Wind SpeedMPH,Gust SpeedMPH,PrecipitationIn,Events,Conditions,WindDirDegrees,DateUTC
12:53 AM,-8.0,-13.0,79,30.51,10.0,Calm,Calm,-,N/A,,Clear,0,2014-02-12 05:53:00
1:53 AM,-11.0,-15.0,83,30.49,10.0,Calm,Calm,-,N/A,,Clear,0,2014-02-12 06:53:00
2:53 AM,-11.0,-16.1,78,30.46,10.0,NNE,3.5,-,N/A,,Clear,20,2014-02-12 07:53:00
3:53 AM,-11.9,-16.1,82,30.45,10.0,Calm,Calm,-,N/A,,Clear,0,2014-02-12 08:53:00
4:53 AM,-14.1,-18.0,82,30.46,9.0,Calm,Calm,-,N/A,,Clear,0,2014-02-12 09:53:00
5:06 AM,-15.0,-20.0,78,30.38,10.0,Calm,Calm,-,N/A,,Scattered Clouds,0,2014-02-12 10:06:00
5:14 AM,-15.0,-20.0,78,30.38,10.0,Calm,Calm,-,N/A,,Mostly Cloudy,0,2014-02-12 10:14:00
5:53 AM,-15.0,-20.0,78,30.46,10.0,North,3.5,-,N/A,,Overcast,360,2014-02-12 10:53:00
6:41 AM,-11.9,-16.1,82,30.36,1.0,Calm,Calm,-,N/A,,Mist,0,2014-02-12 11:41:00
6:48 AM,-11.2,-16.6,77,30.36,0.2,Calm,Calm,-,N/A,Fog,Light Freezing Fog,0,2014-02-12 11:48:00
6:53 AM,-11.9,-15.0,86,30.43,0.2,NNE,3.5,-,N/A,Fog,Light Freezing Fog,20,2014-02-12 11:53:00
7:24 AM,-11.9,-14.1,90,30.34,1.2,Calm,Calm,-,N/A,,Overcast,0,2014-02-12 12:24:00
7:37 AM,-11.9,-16.1,82,30.34,0.2,Calm,Calm,-,N/A,Fog,Light Freezing Fog,0,2014-02-12 12:37:00
7:53 AM,-11.9,-14.1,90,30.41,0.2,NE,3.5,-,N/A,Fog,Light Freezing Fog,40,2014-02-12 12:53:00
8:29 AM,-9.0,-11.9,87,30.33,1.0,Calm,Calm,-,N/A,,Mist,0,2014-02-12 13:29:00
8:41 AM,-9.9,-11.0,95,30.33,0.2,Calm,Calm,-,N/A,Fog,Light Freezing Fog,0,2014-02-12 13:41:00
8:53 AM,-9.0,-9.0,100,30.41,0.2,Calm,Calm,-,N/A,Fog,Light Freezing Fog,0,2014-02-12 13:53:00
9:53 AM,-4.0,-4.0,100,30.41,0.2,Calm,Calm,-,N/A,Fog,Light Freezing Fog,0,2014-02-12 14:53:00
10:53 AM,1.0,-2.0,87,30.39,0.2,North,3.5,-,N/A,Fog,Light Freezing Fog,350,2014-02-12 15:53:00
11:03 AM,1.9,1.9,100,30.31,1.8,Calm,Calm,-,N/A,,Mostly Cloudy,0,2014-02-12 16:03:00
11:05 AM,3.0,1.0,91,30.31,2.5,Calm,Calm,-,N/A,,Scattered Clouds,0,2014-02-12 16:05:00
11:15 AM,3.9,-0.0,84,30.30,3.0,Calm,Calm,-,N/A,,Partly Cloudy,0,2014-02-12 16:15:00
11:53 AM,5.0,1.0,84,30.37,6.0,Calm,Calm,-,N/A,,Clear,0,2014-02-12 16:53:00
12:53 PM,9.0,3.0,77,30.33,10.0,South,4.6,-,N/A,,Clear,190,2014-02-12 17:53:00
1:53 PM,10.0,3.0,73,30.27,10.0,South,4.6,-,N/A,,Clear,170,2014-02-12 18:53:00
2:53 PM,12.0,3.0,67,30.24,10.0,South,4.6,-,N/A,,Clear,170,2014-02-12 19:53:00
3:53 PM,14.0,3.9,64,30.23,10.0,Calm,Calm,-,N/A,,Clear,0,2014-02-12 20:53:00
4:53 PM,16.0,3.9,59,30.21,10.0,Calm,Calm,-,N/A,,Clear,0,2014-02-12 21:53:00
5:53 PM,14.0,3.0,62,30.21,10.0,Calm,Calm,-,N/A,,Clear,0,2014-02-12 22:53:00
6:53 PM,10.0,1.9,70,30.19,10.0,ESE,3.5,-,N/A,,Mostly Cloudy,120,2014-02-12 23:53:00
7:53 PM,12.9,6.1,74,30.19,9.0,Calm,Calm,-,N/A,,Overcast,0,2014-02-13 00:53:00
8:53 PM,14.0,5.0,67,30.20,9.0,Calm,Calm,-,N/A,,Overcast,0,2014-02-13 01:53:00
9:53 PM,14.0,7.0,74,30.18,9.0,Calm,Calm,-,N/A,,Overcast,0,2014-02-13 02:53:00
10:53 PM,14.0,6.1,71,30.16,9.0,SE,3.5,-,N/A,,Overcast,140,2014-02-13 03:53:00
11:53 PM,10.9,3.9,73,30.13,9.0,ESE,4.6,-,N/A,,Partly Cloudy,120,2014-02-13 04:53:00